createdAt,value
2018-03-31T00:00:55.208Z,29.03
2018-03-31T00:03:23.101Z,31.77
2018-03-31T00:05:50.796Z,31.70
2018-03-31T00:08:18.433Z,31.57
2018-03-31T00:10:46.269Z,29.70
2018-03-31T00:13:14.250Z,32.07
2018-03-31T00:15:42.152Z,30.67
2018-03-31T00:18:09.758Z,39.00
2018-03-31T00:20:37.430Z,35.07
2018-03-31T00:23:05.238Z,31.17
2018-03-31T00:25:33.231Z,36.63
2018-03-31T00:28:01.207Z,43.30
2018-03-31T00:30:29.104Z,54.53
2018-03-31T00:32:56.695Z,51.83
2018-03-31T00:35:24.368Z,55.77
2018-03-31T00:37:52.168Z,43.23
2018-03-31T00:40:20.065Z,41.08
2018-03-31T00:42:47.782Z,37.60
2018-03-31T00:45:15.396Z,32.47
2018-03-31T00:47:43.280Z,31.27
2018-03-31T00:50:11.246Z,29.33
2018-03-31T00:52:39.259Z,32.10
2018-03-31T00:55:07.524Z,36.50
2018-03-31T00:57:35.537Z,35.15
2018-03-31T01:00:03.651Z,32.17
2018-03-31T01:02:32.915Z,32.12
2018-03-31T01:05:02.099Z,32.85
2018-03-31T01:07:30.961Z,29.67
2018-03-31T01:09:58.581Z,28.93
2018-03-31T01:12:26.604Z,32.28
2018-03-31T01:14:54.825Z,35.90
2018-03-31T01:17:22.421Z,33.83
2018-03-31T01:19:50.416Z,32.73
2018-03-31T01:22:18.344Z,32.03
2018-03-31T01:24:46.253Z,30.98
2018-03-31T01:27:14.203Z,33.33
2018-03-31T01:29:41.804Z,32.10
2018-03-31T01:32:09.441Z,30.83
2018-03-31T01:34:37.366Z,30.40
2018-03-31T01:37:05.236Z,31.12
2018-03-31T01:39:33.214Z,30.15
2018-03-31T01:42:01.168Z,28.58
2018-03-31T01:44:29.090Z,33.83
2018-03-31T01:46:56.702Z,30.77
2018-03-31T01:49:24.525Z,31.27
2018-03-31T01:51:52.939Z,33.53
2018-03-31T01:54:20.567Z,32.27
2018-03-31T01:56:48.321Z,29.70
2018-03-31T01:59:16.240Z,31.55
2018-03-31T02:01:44.121Z,35.33
2018-03-31T02:04:11.784Z,28.83
2018-03-31T02:06:39.723Z,29.73
2018-03-31T02:09:07.329Z,28.73
2018-03-31T02:11:35.270Z,31.60
2018-03-31T02:14:03.181Z,33.33
2018-03-31T02:16:31.123Z,28.70
2018-03-31T02:18:59.097Z,35.47
2018-03-31T02:21:26.720Z,33.20
2018-03-31T02:23:54.336Z,29.33
2018-03-31T02:26:22.413Z,28.00
2018-03-31T02:28:50.099Z,32.80
2018-03-31T02:31:18.071Z,30.70
2018-03-31T02:33:45.797Z,31.73
2018-03-31T02:36:13.407Z,33.13
2018-03-31T02:38:41.263Z,28.97
2018-03-31T02:41:09.307Z,29.00
2018-03-31T02:43:37.166Z,27.73
2018-03-31T02:46:05.113Z,30.35
2018-03-31T02:48:33.077Z,29.58
2018-03-31T02:51:00.985Z,32.97
2018-03-31T02:53:28.910Z,26.87
2018-03-31T02:55:56.909Z,30.50
2018-03-31T02:58:24.807Z,26.65
2018-03-31T03:00:52.834Z,29.80
2018-03-31T03:03:20.792Z,30.40
2018-03-31T03:05:49.827Z,28.82
2018-03-31T03:08:19.095Z,27.55
2018-03-31T03:10:48.397Z,32.22
2018-03-31T03:13:16.008Z,28.10
2018-03-31T03:15:44.231Z,29.63
2018-03-31T03:18:11.900Z,28.97
2018-03-31T03:20:39.510Z,28.07
2018-03-31T03:23:07.426Z,35.67
2018-03-31T03:25:35.359Z,29.13
2018-03-31T03:28:03.353Z,29.47
2018-03-31T03:30:31.278Z,27.27
2018-03-31T03:32:58.940Z,25.23
2018-03-31T03:35:26.537Z,25.50
2018-03-31T03:37:54.258Z,29.90
2018-03-31T03:40:22.220Z,27.55
2018-03-31T03:42:50.124Z,27.33
2018-03-31T03:45:18.084Z,27.87
2018-03-31T03:47:45.737Z,27.07
2018-03-31T03:50:13.629Z,28.20
2018-03-31T03:52:41.295Z,32.57
2018-03-31T03:55:09.288Z,32.23
2018-03-31T03:57:37.180Z,29.20
2018-03-31T04:00:04.792Z,28.40
2018-03-31T04:02:32.468Z,29.97
2018-03-31T04:05:00.304Z,27.67
2018-03-31T04:07:28.276Z,26.23
2018-03-31T04:09:56.231Z,25.88
2018-03-31T04:12:24.225Z,25.97
2018-03-31T04:14:52.138Z,29.35
2018-03-31T04:17:19.938Z,29.10
2018-03-31T04:19:47.668Z,28.57
2018-03-31T04:22:15.259Z,33.07
2018-03-31T04:24:43.272Z,31.07
2018-03-31T04:27:11.185Z,32.83
2018-03-31T04:29:39.108Z,37.20
2018-03-31T04:32:06.769Z,33.43
2018-03-31T04:34:34.377Z,39.73
2018-03-31T04:37:02.168Z,36.60
2018-03-31T04:39:30.131Z,40.12
2018-03-31T04:41:57.731Z,34.73
2018-03-31T04:44:25.347Z,36.73
2018-03-31T04:46:53.292Z,37.53
2018-03-31T04:49:21.229Z,35.30
2018-03-31T04:51:49.048Z,40.47
2018-03-31T04:54:16.577Z,36.77
2018-03-31T04:56:44.176Z,35.65
2018-03-31T04:59:12.100Z,37.03
2018-03-31T05:01:40.060Z,33.53
2018-03-31T05:04:07.842Z,40.45
2018-03-31T05:06:35.705Z,39.00
2018-03-31T05:09:03.731Z,38.28
2018-03-31T05:11:33.500Z,35.75
2018-03-31T05:14:02.672Z,37.63
2018-03-31T05:16:32.288Z,39.75
2018-03-31T05:19:00.036Z,36.10
2018-03-31T05:21:27.999Z,33.80
2018-03-31T05:23:59.679Z,36.80
2018-03-31T05:26:27.490Z,35.47
2018-03-31T05:28:55.509Z,38.50
2018-03-31T05:31:23.388Z,34.63
2018-03-31T05:33:51.024Z,34.53
2018-03-31T05:36:18.511Z,39.50
2018-03-31T05:38:46.546Z,38.27
2018-03-31T05:41:14.274Z,38.63
2018-03-31T05:43:42.170Z,36.17
2018-03-31T05:46:10.183Z,37.35
2018-03-31T05:48:37.791Z,38.37
2018-03-31T05:51:05.381Z,36.97
2018-03-31T05:53:33.411Z,38.40
2018-03-31T05:56:01.343Z,36.90
2018-03-31T05:58:29.287Z,39.87
2018-03-31T06:00:57.307Z,39.20
2018-03-31T06:03:25.251Z,36.78
2018-03-31T06:05:53.168Z,36.57
2018-03-31T06:08:20.842Z,37.97
2018-03-31T06:10:48.476Z,35.63
2018-03-31T06:13:16.352Z,39.50
2018-03-31T06:15:44.282Z,37.07
2018-03-31T06:18:12.198Z,41.00
2018-03-31T06:20:40.106Z,37.45
2018-03-31T06:23:08.005Z,38.97
2018-03-31T06:25:35.615Z,38.57
2018-03-31T06:28:03.226Z,42.23
2018-03-31T06:30:31.184Z,39.05
2018-03-31T06:32:59.357Z,34.30
2018-03-31T06:35:27.227Z,41.40
2018-03-31T06:37:55.313Z,39.15
2018-03-31T06:40:23.144Z,37.90
2018-03-31T06:42:51.082Z,39.83
2018-03-31T06:45:19.061Z,41.20
2018-03-31T06:47:46.663Z,39.90
2018-03-31T06:50:14.461Z,33.97
2018-03-31T06:52:42.369Z,39.53
2018-03-31T06:55:10.340Z,40.30
2018-03-31T06:57:38.292Z,36.57
2018-03-31T07:00:06.328Z,37.27
2018-03-31T07:02:34.183Z,44.80
2018-03-31T07:05:02.103Z,40.50
2018-03-31T07:07:30.084Z,38.42
2018-03-31T07:09:58.220Z,38.40
2018-03-31T07:12:26.108Z,39.83
2018-03-31T07:14:54.010Z,47.65
2018-03-31T07:17:22.020Z,43.80
2018-03-31T07:19:51.408Z,42.45
2018-03-31T07:22:21.083Z,45.97
2018-03-31T07:24:50.723Z,41.40
2018-03-31T07:27:20.245Z,40.70
2018-03-31T07:29:48.219Z,42.78
2018-03-31T07:32:16.252Z,40.55
2018-03-31T07:34:44.168Z,43.13
2018-03-31T07:37:12.430Z,42.33
2018-03-31T07:39:40.383Z,41.37
2018-03-31T07:42:08.308Z,43.33
2018-03-31T07:44:36.379Z,42.50
2018-03-31T07:47:04.371Z,42.72
2018-03-31T07:49:33.207Z,43.42
2018-03-31T07:52:01.395Z,40.38
2018-03-31T07:54:29.512Z,41.03
2018-03-31T07:56:57.402Z,37.87
2018-03-31T07:59:25.336Z,36.37
2018-03-31T08:01:53.448Z,39.90
2018-03-31T08:04:21.296Z,34.43
2018-03-31T08:06:49.210Z,42.85
2018-03-31T08:09:17.177Z,38.42
2018-03-31T08:11:44.832Z,44.53
2018-03-31T08:14:12.959Z,37.77
2018-03-31T08:16:40.692Z,41.77
2018-03-31T08:19:08.528Z,37.67
2018-03-31T08:21:36.315Z,41.23
2018-03-31T08:24:04.313Z,40.50
2018-03-31T08:26:32.271Z,33.73
2018-03-31T08:29:00.001Z,36.23
2018-03-31T08:31:28.411Z,39.27
2018-03-31T08:33:56.274Z,41.83
2018-03-31T08:36:24.204Z,40.88
2018-03-31T08:38:52.236Z,38.00
2018-03-31T08:41:20.140Z,45.80
2018-03-31T08:43:47.880Z,42.97
2018-03-31T08:46:15.610Z,40.77
2018-03-31T08:48:43.301Z,46.17
2018-03-31T08:51:11.220Z,39.13
2018-03-31T08:53:39.228Z,41.47
2018-03-31T08:56:07.193Z,39.88
2018-03-31T08:58:35.159Z,41.22
2018-03-31T09:01:02.968Z,44.13
2018-03-31T09:03:30.887Z,47.50
2018-03-31T09:05:58.926Z,38.30
2018-03-31T09:08:26.730Z,41.20
2018-03-31T09:10:54.343Z,39.57
2018-03-31T09:13:22.300Z,37.27
2018-03-31T09:15:50.250Z,35.73
2018-03-31T09:18:18.181Z,37.70
2018-03-31T09:20:46.145Z,42.33
2018-03-31T09:23:14.208Z,39.45
2018-03-31T09:25:42.161Z,37.80
2018-03-31T09:28:10.073Z,40.55
2018-03-31T09:30:38.326Z,37.40
2018-03-31T09:33:06.660Z,48.20
2018-03-31T09:35:35.971Z,40.80
2018-03-31T09:38:05.440Z,41.08
2018-03-31T09:40:33.056Z,38.00
2018-03-31T09:43:00.959Z,33.45
2018-03-31T09:45:28.887Z,48.90
2018-03-31T09:47:56.489Z,39.37
2018-03-31T09:50:24.358Z,45.27
2018-03-31T09:52:52.651Z,42.75
2018-03-31T09:55:21.649Z,34.70
2018-03-31T09:57:49.348Z,41.93
2018-03-31T10:00:17.209Z,38.10
2018-03-31T10:02:44.826Z,41.60
2018-03-31T10:05:12.511Z,42.93
2018-03-31T10:07:40.358Z,43.27
2018-03-31T10:10:08.329Z,40.77
2018-03-31T10:12:36.216Z,45.78
2018-03-31T10:15:04.190Z,44.67
2018-03-31T10:17:32.094Z,42.75
2018-03-31T10:19:59.696Z,38.70
2018-03-31T10:22:27.406Z,42.43
2018-03-31T10:24:55.285Z,45.53
2018-03-31T10:27:23.196Z,43.63
2018-03-31T10:29:51.160Z,41.47
2018-03-31T10:32:18.768Z,49.63
2018-03-31T10:34:46.451Z,51.50
2018-03-31T10:37:14.624Z,48.57
2018-03-31T10:39:42.308Z,49.60
2018-03-31T10:42:10.253Z,45.77
2018-03-31T10:44:38.257Z,48.15
2018-03-31T10:47:06.177Z,43.20
2018-03-31T10:49:33.794Z,45.53
2018-03-31T10:52:01.475Z,45.90
2018-03-31T10:54:29.229Z,46.23
2018-03-31T10:56:57.142Z,45.53
2018-03-31T10:59:24.824Z,40.43
2018-03-31T11:01:52.463Z,46.00
2018-03-31T11:04:20.183Z,51.73
2018-03-31T11:06:48.211Z,85.22
2018-03-31T11:09:16.132Z,80.25
2018-03-31T11:11:44.056Z,85.90
2018-03-31T11:14:11.729Z,133.63
2018-03-31T11:16:39.360Z,112.53
2018-03-31T11:19:07.277Z,83.80
2018-03-31T11:21:35.319Z,71.53
2018-03-31T11:24:03.192Z,52.43
2018-03-31T11:26:31.101Z,47.75
2018-03-31T11:28:58.773Z,47.30
2018-03-31T11:31:26.487Z,48.93
2018-03-31T11:33:54.526Z,49.97
2018-03-31T11:36:22.520Z,49.92
2018-03-31T11:38:50.816Z,54.30
2018-03-31T11:41:20.036Z,46.33
2018-03-31T11:43:49.308Z,51.42
2018-03-31T11:46:20.029Z,51.17
2018-03-31T11:48:50.355Z,51.56
2018-03-31T11:51:17.948Z,59.40
2018-03-31T11:53:45.613Z,56.03
2018-03-31T11:56:13.450Z,56.17
2018-03-31T11:58:41.316Z,53.03
2018-03-31T12:01:09.273Z,51.25
2018-03-31T12:03:37.273Z,54.40
2018-03-31T12:11:52.046Z,46.07
2018-03-31T12:14:19.751Z,51.73
2018-03-31T12:16:47.389Z,48.17
2018-03-31T12:19:15.013Z,50.97
2018-03-31T12:21:42.728Z,50.17
2018-03-31T12:24:10.776Z,57.42
2018-03-31T12:26:38.376Z,54.03
2018-03-31T12:29:06.917Z,52.58
2018-03-31T12:31:37.081Z,49.58
2018-03-31T12:34:07.463Z,50.86
2018-03-31T12:36:36.936Z,55.70
2018-03-31T12:39:06.690Z,50.83
2018-03-31T12:41:36.401Z,54.50
2018-03-31T12:44:04.028Z,50.60
2018-03-31T12:46:31.936Z,48.58
2018-03-31T12:49:03.198Z,51.60
2018-03-31T12:51:30.833Z,52.37
2018-03-31T12:53:58.453Z,53.83
2018-03-31T12:56:26.782Z,70.03
2018-03-31T12:58:54.422Z,62.50
2018-03-31T13:01:22.398Z,57.57
2018-03-31T13:03:50.374Z,84.13
2018-03-31T13:06:18.344Z,80.53
2018-03-31T13:08:46.266Z,89.93
2018-03-31T13:11:14.347Z,79.05
2018-03-31T13:13:42.357Z,70.60
2018-03-31T13:16:10.295Z,66.97
2018-03-31T13:18:38.951Z,60.28
2018-03-31T13:21:06.623Z,54.57
2018-03-31T13:23:34.424Z,58.13
2018-03-31T13:26:02.394Z,61.57
2018-03-31T13:28:30.434Z,61.13
2018-03-31T13:30:58.348Z,66.97
2018-03-31T13:33:26.050Z,62.80
2018-03-31T13:35:53.742Z,71.27
2018-03-31T13:38:21.372Z,65.43
2018-03-31T13:40:49.381Z,66.80
2018-03-31T13:43:17.335Z,70.90
2018-03-31T13:45:45.277Z,67.33
2018-03-31T13:48:13.377Z,64.65
2018-03-31T13:50:41.366Z,60.43
2018-03-31T13:53:09.269Z,68.77
2018-03-31T13:55:37.277Z,66.72
2018-03-31T13:58:05.603Z,65.90
2018-03-31T14:00:33.346Z,70.67
2018-03-31T14:03:01.374Z,77.43
2018-03-31T14:05:29.450Z,76.40
2018-03-31T14:07:57.277Z,82.80
2018-03-31T14:10:26.137Z,64.70
2018-03-31T14:12:54.353Z,93.62
2018-03-31T14:15:22.296Z,83.40
2018-03-31T14:17:50.244Z,79.43
2018-03-31T14:20:18.268Z,74.35
2018-03-31T14:22:46.192Z,73.22
2018-03-31T14:25:14.140Z,72.93
2018-03-31T14:27:42.350Z,73.80
2018-03-31T14:30:10.298Z,70.40
2018-03-31T14:32:38.300Z,70.83
2018-03-31T14:35:06.325Z,66.18
2018-03-31T14:37:34.120Z,63.65
2018-03-31T14:40:01.784Z,65.53
2018-03-31T14:42:29.517Z,64.73
2018-03-31T14:44:57.574Z,56.00
2018-03-31T14:47:25.806Z,59.13
2018-03-31T14:49:55.020Z,60.50
2018-03-31T14:52:25.402Z,64.20
2018-03-31T14:54:54.801Z,60.42
2018-03-31T14:57:24.309Z,66.05
2018-03-31T14:59:51.958Z,58.03
2018-03-31T15:02:19.493Z,61.80
2018-03-31T15:04:47.181Z,66.83
2018-03-31T15:07:14.838Z,60.90
2018-03-31T15:09:42.532Z,59.63
2018-03-31T15:12:10.492Z,61.87
2018-03-31T15:14:38.526Z,60.30
2018-03-31T15:17:06.428Z,58.83
2018-03-31T15:19:34.472Z,56.67
2018-03-31T15:22:02.369Z,57.70
2018-03-31T15:24:30.519Z,60.40
2018-03-31T15:26:58.400Z,69.77
2018-03-31T15:29:26.324Z,75.87
2018-03-31T15:31:54.351Z,74.28
2018-03-31T15:34:22.305Z,68.20
2018-03-31T15:36:50.280Z,79.43
2018-03-31T15:39:18.405Z,85.38
2018-03-31T15:41:46.453Z,72.10
2018-03-31T15:44:14.292Z,68.87
2018-03-31T15:46:42.382Z,68.05
2018-03-31T15:49:10.386Z,64.93
2018-03-31T15:51:38.319Z,59.53
2018-03-31T15:54:06.394Z,67.07
2018-03-31T15:56:34.356Z,77.37
2018-03-31T15:59:02.300Z,89.30
2018-03-31T16:01:30.398Z,87.53
2018-03-31T16:03:58.369Z,80.90
2018-03-31T16:06:26.371Z,93.85
2018-03-31T16:08:55.051Z,96.50
2018-03-31T16:11:22.756Z,97.23
2018-03-31T16:13:50.441Z,87.90
2018-03-31T16:16:18.419Z,90.70
2018-03-31T16:18:46.468Z,88.25
2018-03-31T16:21:14.244Z,86.07
2018-03-31T16:23:42.227Z,77.20
2018-03-31T16:26:10.288Z,71.27
2018-03-31T16:28:38.303Z,78.27
2018-03-31T16:31:06.391Z,76.00
2018-03-31T16:33:34.284Z,67.33
2018-03-31T16:36:02.328Z,73.00
2018-03-31T16:38:30.394Z,66.30
2018-03-31T16:40:58.288Z,89.23
2018-03-31T16:43:26.281Z,84.23
2018-03-31T16:45:54.337Z,87.73
2018-03-31T16:48:22.299Z,80.33
2018-03-31T16:50:50.161Z,72.72
2018-03-31T16:53:17.877Z,92.40
2018-03-31T16:55:45.512Z,88.77
2018-03-31T16:58:13.564Z,71.82
2018-03-31T17:00:41.301Z,67.22
2018-03-31T17:03:09.708Z,78.00
2018-03-31T17:05:40.249Z,79.55
2018-03-31T17:08:09.729Z,82.93
2018-03-31T17:10:39.325Z,115.40
2018-03-31T17:13:06.947Z,94.97
2018-03-31T17:15:34.495Z,100.60
2018-03-31T17:18:02.368Z,86.13
2018-03-31T17:20:30.318Z,81.03
2018-03-31T17:22:58.424Z,82.30
2018-03-31T17:25:26.395Z,84.27
2018-03-31T17:27:54.729Z,75.03
2018-03-31T17:30:22.492Z,75.40
2018-03-31T17:32:50.400Z,90.10
2018-03-31T17:35:18.424Z,165.73
2018-03-31T17:37:46.552Z,63.40
2018-03-31T17:40:14.317Z,63.97
2018-03-31T17:42:42.283Z,69.68
2018-03-31T17:45:10.291Z,66.60
2018-03-31T17:47:38.245Z,75.97
2018-03-31T17:50:06.186Z,79.25
2018-03-31T17:52:34.197Z,77.90
2018-03-31T17:55:02.158Z,77.28
2018-03-31T17:57:29.802Z,90.10
2018-03-31T17:59:57.572Z,140.03
2018-03-31T18:02:25.436Z,117.63
2018-03-31T18:04:54.260Z,81.73
2018-03-31T18:07:22.124Z,76.50
2018-03-31T18:09:50.029Z,79.28
2018-03-31T18:12:17.662Z,68.93
2018-03-31T18:14:45.414Z,62.60
2018-03-31T18:17:13.308Z,61.43
2018-03-31T18:19:41.376Z,57.33
2018-03-31T18:22:09.317Z,54.97
2018-03-31T18:24:37.446Z,57.55
2018-03-31T18:27:05.369Z,56.00
2018-03-31T18:29:33.391Z,61.53
2018-03-31T18:32:01.029Z,59.67
2018-03-31T18:34:29.177Z,61.63
2018-03-31T18:36:57.609Z,64.40
2018-03-31T18:39:25.334Z,66.60
2018-03-31T18:41:53.591Z,65.63
2018-03-31T18:44:21.877Z,64.67
2018-03-31T18:46:49.530Z,58.93
2018-03-31T18:49:17.371Z,59.73
2018-03-31T18:51:45.297Z,56.23
2018-03-31T18:54:13.252Z,63.33
2018-03-31T18:56:41.289Z,75.00
2018-03-31T18:59:09.219Z,78.82
2018-03-31T19:01:37.168Z,83.93
2018-03-31T19:04:04.887Z,82.27
2018-03-31T19:06:32.534Z,85.97
2018-03-31T19:09:00.621Z,83.85
2018-03-31T19:11:28.383Z,83.28
2018-03-31T19:13:56.742Z,85.40
2018-03-31T19:16:31.444Z,86.87
2018-03-31T19:18:59.081Z,79.23
2018-03-31T19:21:29.447Z,78.58
2018-03-31T19:23:58.864Z,75.12
2018-03-31T19:26:28.328Z,85.10
2018-03-31T19:28:55.939Z,81.73
2018-03-31T19:31:24.164Z,73.78
2018-03-31T19:33:52.133Z,79.30
2018-03-31T19:36:19.833Z,83.40
2018-03-31T19:38:47.551Z,85.60
2018-03-31T19:41:15.414Z,94.97
2018-03-31T19:43:43.307Z,90.80
2018-03-31T19:46:11.313Z,97.70
2018-03-31T19:48:39.321Z,97.50
2018-03-31T19:51:07.327Z,103.80
2018-03-31T19:53:35.384Z,105.15
2018-03-31T19:56:03.322Z,108.40
2018-03-31T19:58:31.314Z,106.50
2018-03-31T20:00:59.376Z,111.13
2018-03-31T20:03:28.596Z,105.50
2018-03-31T20:06:04.376Z,102.82
2018-03-31T20:08:33.135Z,112.83
2018-03-31T20:11:00.855Z,107.07
2018-03-31T20:13:28.576Z,113.20
2018-03-31T20:15:56.312Z,106.33
2018-03-31T20:18:24.699Z,115.15
2018-03-31T20:20:52.421Z,109.03
2018-03-31T20:23:20.348Z,110.57
2018-03-31T20:25:48.319Z,108.53
2018-03-31T20:28:16.341Z,112.90
2018-03-31T20:30:44.566Z,105.50
2018-03-31T20:33:12.205Z,103.93
2018-03-31T20:35:40.382Z,106.25
2018-03-31T20:38:08.262Z,110.07
2018-03-31T20:40:36.566Z,102.32
2018-03-31T20:43:04.745Z,99.77
2018-03-31T20:45:32.727Z,101.93
2018-03-31T20:48:00.529Z,97.83
2018-03-31T20:50:28.346Z,98.03
2018-03-31T20:52:56.320Z,104.63
2018-03-31T20:55:24.468Z,108.97
2018-03-31T20:57:52.363Z,98.77
2018-03-31T21:00:20.267Z,98.13
2018-03-31T21:02:48.305Z,95.17
2018-03-31T21:05:16.335Z,99.60
2018-03-31T21:07:44.323Z,93.27
2018-03-31T21:10:12.335Z,92.27
2018-03-31T21:12:40.944Z,89.77
2018-03-31T21:15:08.570Z,83.73
2018-03-31T21:17:36.297Z,80.80
2018-03-31T21:20:04.229Z,85.60
2018-03-31T21:22:32.253Z,77.93
2018-03-31T21:25:00.142Z,77.03
2018-03-31T21:27:28.051Z,74.28
2018-03-31T21:29:56.009Z,75.75
2018-03-31T21:32:24.059Z,80.85
2018-03-31T21:34:52.024Z,76.70
2018-03-31T21:37:19.948Z,74.65
2018-03-31T21:39:49.628Z,76.65
2018-03-31T21:42:19.312Z,75.50
2018-03-31T21:44:48.751Z,74.57
2018-03-31T21:47:18.287Z,71.53
2018-03-31T21:49:46.319Z,69.37
2018-03-31T21:52:14.268Z,69.55
2018-03-31T21:54:42.252Z,64.25
2018-03-31T21:57:10.165Z,67.35
2018-03-31T21:59:37.802Z,65.97
2018-03-31T22:02:05.530Z,62.70
2018-03-31T22:04:33.355Z,62.80
2018-03-31T22:07:01.312Z,55.80
2018-03-31T22:09:29.663Z,59.97
2018-03-31T22:11:57.417Z,54.17
2018-03-31T22:14:30.699Z,50.70
2018-03-31T22:16:58.796Z,60.90
2018-03-31T22:19:26.457Z,53.93
2018-03-31T22:21:54.371Z,60.40
2018-03-31T22:24:22.680Z,59.38
2018-03-31T22:26:50.301Z,57.63
2018-03-31T22:29:18.349Z,68.13
2018-03-31T22:31:47.211Z,63.53
2018-03-31T22:34:15.748Z,63.60
2018-03-31T22:36:43.508Z,65.67
2018-03-31T22:39:11.311Z,64.53
2018-03-31T22:41:39.268Z,58.63
2018-03-31T22:44:07.345Z,59.85
2018-03-31T22:46:35.266Z,62.95
2018-03-31T22:49:03.187Z,58.75
2018-03-31T22:51:31.232Z,63.17
2018-03-31T22:53:59.168Z,61.75
2018-03-31T22:56:27.087Z,64.30
2018-03-31T22:58:54.759Z,62.33
2018-03-31T23:01:22.380Z,62.73
2018-03-31T23:03:50.224Z,56.63
2018-03-31T23:06:18.212Z,57.42
2018-03-31T23:08:46.140Z,62.70
2018-03-31T23:11:14.064Z,56.63
2018-03-31T23:13:41.756Z,54.67
2018-03-31T23:16:09.407Z,57.27
2018-03-31T23:18:37.220Z,51.43
2018-03-31T23:21:05.183Z,47.78
2018-03-31T23:23:33.075Z,45.75
2018-03-31T23:26:01.664Z,44.33
2018-03-31T23:28:29.740Z,43.83
2018-03-31T23:30:57.368Z,39.93
2018-03-31T23:33:25.244Z,39.77
2018-03-31T23:35:54.239Z,40.90
2018-03-31T23:38:22.214Z,38.97
2018-03-31T23:40:50.135Z,43.25
2018-03-31T23:43:18.091Z,45.90
2018-03-31T23:45:46.991Z,44.75
2018-03-31T23:48:14.918Z,43.03
2018-03-31T23:50:42.886Z,42.05
2018-03-31T23:53:10.926Z,40.30
2018-03-31T23:55:38.840Z,43.38
2018-03-31T23:58:06.811Z,45.85
